Kennan, WI

11:02 AM CDT on April 21, 2015 (GMT -0500)
Downtown (BP station) | | Change Station
CLOSE
Current Station
Personal Weather Station
Location: Phillips, WI
Elevation: 1470 ft
Nearby Weather Stations

Elev 1470 ft 45.69 °N, 90.40 °W | Updated 5 minutes ago

Snow
Snow
32.6 °F
Feels Like 33 °F
N
0.0
Wind Variable Wind from West
Gusts 14.0 mph

Today
High -- | Low -- °F
--% Chance of Precip.
Yesterday
High -- | Low -- °F
Precip. -- in
6:06 AM 7:56 PM
Waxing Crescent, 11% visible
Pressure 29.39 in
Visibility 10.0 miles
Clouds Scattered Clouds 1800 ft
Mostly Cloudy 2500 ft
Overcast 3800 ft
Windchill 33 °F
Dew Point 29 °F
Humidity 87%
Rainfall 0.00 in
Snow Depth Not available.
UV 2 out of 12
Pollen 7.60 out of 12
Air Quality Not available.
Flu Activity Local Activity
METAR KPBH 211555Z AUTO 30011G16KT 260V320 10SM SCT018 BKN025 OVC038 01/M02 A2939 RMK AO2 T00121023

More Conditions Fewer Conditions

Pressure 29.39 in
Visibility 10.0 miles
Clouds Scattered Clouds 1800 ft
Mostly Cloudy 2500 ft
Overcast 3800 ft
Windchill 33 °F
Dew Point 29 °F
Humidity 87%
Rainfall 0.00 in
Snow Depth Not available.
UV 2 out of 12
Pollen 7.60 out of 12
Air Quality Not available.
Flu Activity Local Activity
METAR KPBH 211555Z AUTO 30011G16KT 260V320 10SM SCT018 BKN025 OVC038 01/M02 A2939 RMK AO2 T00121023

More Conditions Fewer Conditions

10-Day Weather Forecast

Almanac

Astronomy

Apr. 21, 2015 Rise Set
Actual Time
Civil Twilight
Nautical Twilight
Astronomical Twilight
Moon
Length of Visible Light
Length of Day
Tomorrow will be .
, % of the Moon is Illuminated

Today's Extremes

State Highs State Lows

Community

WunderPhotos

Upload Photos

1,815,433 photos uploaded!

WunderBlogs® & News

Nearby

Air Quality

  Air Quality AQ Index Pollutant
Not available.

Snow Depth

Station Depth Elevation

Earthquake Activity

City Distance Mag. Time & Date
Minimum magnitude displayed is 2.5.

Coastal Water Temperatures

Place Temperature

Stations

Nearby Weather Stations

Station Location Temp. Windchill Dew Point Humidity Wind Precip. Elev Updated Type